sensor_id;sensor_type;location;lat;lon;timestamp;P1;P2;P0
47810;PMS5003;33575;52.600;7.318;2023-03-21T00:01:14;37;35;
47810;PMS5003;33575;52.600;7.318;2023-03-21T00:03:45;37;34;
47810;PMS5003;33575;52.600;7.318;2023-03-21T00:06:15;43;40;
47810;PMS5003;33575;52.600;7.318;2023-03-21T00:08:46;43;42;
47810;PMS5003;33575;52.600;7.318;2023-03-21T00:11:16;41;38;
47810;PMS5003;33575;52.600;7.318;2023-03-21T00:13:47;37;36;
47810;PMS5003;33575;52.600;7.318;2023-03-21T00:16:22;45;43;
47810;PMS5003;33575;52.600;7.318;2023-03-21T00:18:48;44;42;
47810;PMS5003;33575;52.600;7.318;2023-03-21T00:21:24;42;40;
47810;PMS5003;33575;52.600;7.318;2023-03-21T00:23:49;40;36;
47810;PMS5003;33575;52.600;7.318;2023-03-21T00:26:19;39;37;
47810;PMS5003;33575;52.600;7.318;2023-03-21T00:28:50;41;39;
47810;PMS5003;33575;52.600;7.318;2023-03-21T00:31:19;42;38;
47810;PMS5003;33575;52.600;7.318;2023-03-21T00:33:50;42;39;
47810;PMS5003;33575;52.600;7.318;2023-03-21T00:36:20;42;41;
47810;PMS5003;33575;52.600;7.318;2023-03-21T00:38:51;43;42;
47810;PMS5003;33575;52.600;7.318;2023-03-21T00:41:26;45;42;
47810;PMS5003;33575;52.600;7.318;2023-03-21T00:43:51;47;46;
47810;PMS5003;33575;52.600;7.318;2023-03-21T00:46:24;37;36;
47810;PMS5003;33575;52.600;7.318;2023-03-21T00:48:52;41;38;
47810;PMS5003;33575;52.600;7.318;2023-03-21T00:51:23;42;41;
47810;PMS5003;33575;52.600;7.318;2023-03-21T00:53:54;46;42;
47810;PMS5003;33575;52.600;7.318;2023-03-21T00:56:24;42;40;
47810;PMS5003;33575;52.600;7.318;2023-03-21T00:58:54;48;45;
47810;PMS5003;33575;52.600;7.318;2023-03-21T01:01:25;51;47;
47810;PMS5003;33575;52.600;7.318;2023-03-21T01:03:55;51;47;
47810;PMS5003;33575;52.600;7.318;2023-03-21T01:06:25;46;44;
47810;PMS5003;33575;52.600;7.318;2023-03-21T01:08:55;45;42;
47810;PMS5003;33575;52.600;7.318;2023-03-21T01:11:27;44;42;
47810;PMS5003;33575;52.600;7.318;2023-03-21T01:14:01;47;46;
47810;PMS5003;33575;52.600;7.318;2023-03-21T01:16:27;46;42;
47810;PMS5003;33575;52.600;7.318;2023-03-21T01:18:57;43;39;
47810;PMS5003;33575;52.600;7.318;2023-03-21T01:21:27;48;45;
47810;PMS5003;33575;52.600;7.318;2023-03-21T01:23:58;46;45;
47810;PMS5003;33575;52.600;7.318;2023-03-21T01:26:29;49;46;
47810;PMS5003;33575;52.600;7.318;2023-03-21T01:28:59;43;41;
47810;PMS5003;33575;52.600;7.318;2023-03-21T01:31:30;45;38;
47810;PMS5003;33575;52.600;7.318;2023-03-21T01:34:00;57;44;
47810;PMS5003;33575;52.600;7.318;2023-03-21T01:36:31;50;47;
47810;PMS5003;33575;52.600;7.318;2023-03-21T01:39:02;43;39;
47810;PMS5003;33575;52.600;7.318;2023-03-21T01:41:37;45;41;
47810;PMS5003;33575;52.600;7.318;2023-03-21T01:44:02;44;41;
47810;PMS5003;33575;52.600;7.318;2023-03-21T01:46:38;45;42;
47810;PMS5003;33575;52.600;7.318;2023-03-21T01:49:03;48;44;
47810;PMS5003;33575;52.600;7.318;2023-03-21T01:51:34;46;42;
47810;PMS5003;33575;52.600;7.318;2023-03-21T01:54:03;43;40;
47810;PMS5003;33575;52.600;7.318;2023-03-21T01:56:34;45;38;
47810;PMS5003;33575;52.600;7.318;2023-03-21T01:59:05;40;36;
47810;PMS5003;33575;52.600;7.318;2023-03-21T02:01:35;41;40;
47810;PMS5003;33575;52.600;7.318;2023-03-21T02:04:06;41;41;
47810;PMS5003;33575;52.600;7.318;2023-03-21T02:06:38;43;38;
47810;PMS5003;33575;52.600;7.318;2023-03-21T02:09:07;46;41;
47810;PMS5003;33575;52.600;7.318;2023-03-21T02:11:37;46;39;
47810;PMS5003;33575;52.600;7.318;2023-03-21T02:14:09;47;43;
47810;PMS5003;33575;52.600;7.318;2023-03-21T02:16:42;43;39;
47810;PMS5003;33575;52.600;7.318;2023-03-21T02:19:16;42;39;
47810;PMS5003;33575;52.600;7.318;2023-03-21T02:26:49;43;39;
47810;PMS5003;33575;52.600;7.318;2023-03-21T02:29:11;37;35;
47810;PMS5003;33575;52.600;7.318;2023-03-21T02:31:40;43;43;
47810;PMS5003;33575;52.600;7.318;2023-03-21T02:34:19;39;38;
47810;PMS5003;33575;52.600;7.318;2023-03-21T02:39:12;40;39;
47810;PMS5003;33575;52.600;7.318;2023-03-21T02:41:44;44;40;
47810;PMS5003;33575;52.600;7.318;2023-03-21T02:44:15;44;43;
47810;PMS5003;33575;52.600;7.318;2023-03-21T02:46:49;41;37;
47810;PMS5003;33575;52.600;7.318;2023-03-21T02:49:14;43;40;
47810;PMS5003;33575;52.600;7.318;2023-03-21T02:51:43;41;37;
47810;PMS5003;33575;52.600;7.318;2023-03-21T02:54:19;38;36;
47810;PMS5003;33575;52.600;7.318;2023-03-21T02:56:43;41;37;
47810;PMS5003;33575;52.600;7.318;2023-03-21T02:59:13;39;34;
47810;PMS5003;33575;52.600;7.318;2023-03-21T03:01:44;43;41;
47810;PMS5003;33575;52.600;7.318;2023-03-21T03:04:16;50;41;
47810;PMS5003;33575;52.600;7.318;2023-03-21T03:06:47;42;41;
47810;PMS5003;33575;52.600;7.318;2023-03-21T03:09:18;35;34;
47810;PMS5003;33575;52.600;7.318;2023-03-21T03:11:45;41;36;
47810;PMS5003;33575;52.600;7.318;2023-03-21T03:14:26;41;39;
47810;PMS5003;33575;52.600;7.318;2023-03-21T03:16:47;39;35;
47810;PMS5003;33575;52.600;7.318;2023-03-21T03:19:18;41;38;
47810;PMS5003;33575;52.600;7.318;2023-03-21T03:21:48;44;39;
47810;PMS5003;33575;52.600;7.318;2023-03-21T03:24:19;37;36;
47810;PMS5003;33575;52.600;7.318;2023-03-21T03:26:49;37;35;
47810;PMS5003;33575;52.600;7.318;2023-03-21T03:29:19;44;42;
47810;PMS5003;33575;52.600;7.318;2023-03-21T03:31:50;39;38;
47810;PMS5003;33575;52.600;7.318;2023-03-21T03:34:20;43;39;
47810;PMS5003;33575;52.600;7.318;2023-03-21T03:36:51;44;36;
47810;PMS5003;33575;52.600;7.318;2023-03-21T03:39:20;36;33;
47810;PMS5003;33575;52.600;7.318;2023-03-21T03:41:57;37;36;
47810;PMS5003;33575;52.600;7.318;2023-03-21T03:44:20;42;39;
47810;PMS5003;33575;52.600;7.318;2023-03-21T03:46:52;37;36;
47810;PMS5003;33575;52.600;7.318;2023-03-21T03:49:22;43;41;
47810;PMS5003;33575;52.600;7.318;2023-03-21T03:51:53;40;36;
47810;PMS5003;33575;52.600;7.318;2023-03-21T03:54:22;36;33;
47810;PMS5003;33575;52.600;7.318;2023-03-21T03:56:52;39;36;
47810;PMS5003;33575;52.600;7.318;2023-03-21T03:59:22;42;38;
47810;PMS5003;33575;52.600;7.318;2023-03-21T04:01:53;41;40;
47810;PMS5003;33575;52.600;7.318;2023-03-21T04:04:23;36;34;
47810;PMS5003;33575;52.600;7.318;2023-03-21T04:06:54;38;37;
47810;PMS5003;33575;52.600;7.318;2023-03-21T04:09:30;40;36;
47810;PMS5003;33575;52.600;7.318;2023-03-21T04:11:56;34;31;
47810;PMS5003;33575;52.600;7.318;2023-03-21T04:14:31;40;38;
47810;PMS5003;33575;52.600;7.318;2023-03-21T04:16:56;36;32;
47810;PMS5003;33575;52.600;7.318;2023-03-21T04:19:27;42;37;
47810;PMS5003;33575;52.600;7.318;2023-03-21T04:21:58;36;33;
47810;PMS5003;33575;52.600;7.318;2023-03-21T04:24:29;40;35;
47810;PMS5003;33575;52.600;7.318;2023-03-21T04:26:59;39;36;
47810;PMS5003;33575;52.600;7.318;2023-03-21T04:29:29;44;38;
47810;PMS5003;33575;52.600;7.318;2023-03-21T04:31:59;40;38;
47810;PMS5003;33575;52.600;7.318;2023-03-21T04:34:30;31;28;
47810;PMS5003;33575;52.600;7.318;2023-03-21T04:37:00;30;29;
47810;PMS5003;33575;52.600;7.318;2023-03-21T04:39:30;30;30;
47810;PMS5003;33575;52.600;7.318;2023-03-21T04:42:01;36;34;
47810;PMS5003;33575;52.600;7.318;2023-03-21T04:44:31;36;34;
47810;PMS5003;33575;52.600;7.318;2023-03-21T04:47:01;36;32;
47810;PMS5003;33575;52.600;7.318;2023-03-21T04:49:31;33;32;
47810;PMS5003;33575;52.600;7.318;2023-03-21T04:52:02;35;33;
47810;PMS5003;33575;52.600;7.318;2023-03-21T04:54:33;36;34;
47810;PMS5003;33575;52.600;7.318;2023-03-21T04:57:03;35;32;
47810;PMS5003;33575;52.600;7.318;2023-03-21T04:59:34;36;34;
47810;PMS5003;33575;52.600;7.318;2023-03-21T05:02:04;29;28;
47810;PMS5003;33575;52.600;7.318;2023-03-21T05:04:35;34;30;
47810;PMS5003;33575;52.600;7.318;2023-03-21T05:07:05;30;29;
47810;PMS5003;33575;52.600;7.318;2023-03-21T05:09:39;34;33;
47810;PMS5003;33575;52.600;7.318;2023-03-21T05:12:06;27;26;
47810;PMS5003;33575;52.600;7.318;2023-03-21T05:14:37;31;30;
47810;PMS5003;33575;52.600;7.318;2023-03-21T05:17:08;35;35;
47810;PMS5003;33575;52.600;7.318;2023-03-21T05:19:38;32;30;
47810;PMS5003;33575;52.600;7.318;2023-03-21T05:22:09;35;33;
47810;PMS5003;33575;52.600;7.318;2023-03-21T05:24:39;31;30;
47810;PMS5003;33575;52.600;7.318;2023-03-21T05:27:09;37;36;
47810;PMS5003;33575;52.600;7.318;2023-03-21T05:29:40;31;29;
47810;PMS5003;33575;52.600;7.318;2023-03-21T05:32:10;29;27;
47810;PMS5003;33575;52.600;7.318;2023-03-21T05:34:40;29;27;
47810;PMS5003;33575;52.600;7.318;2023-03-21T05:37:11;36;34;
47810;PMS5003;33575;52.600;7.318;2023-03-21T05:39:41;36;32;
47810;PMS5003;33575;52.600;7.318;2023-03-21T05:42:11;29;28;
47810;PMS5003;33575;52.600;7.318;2023-03-21T05:44:41;42;37;
47810;PMS5003;33575;52.600;7.318;2023-03-21T05:47:12;34;34;
47810;PMS5003;33575;52.600;7.318;2023-03-21T05:49:42;42;38;
47810;PMS5003;33575;52.600;7.318;2023-03-21T05:52:12;34;32;
47810;PMS5003;33575;52.600;7.318;2023-03-21T05:54:43;37;34;
47810;PMS5003;33575;52.600;7.318;2023-03-21T05:57:14;37;35;
47810;PMS5003;33575;52.600;7.318;2023-03-21T05:59:43;38;36;
47810;PMS5003;33575;52.600;7.318;2023-03-21T06:02:14;34;33;
47810;PMS5003;33575;52.600;7.318;2023-03-21T06:04:44;39;34;
47810;PMS5003;33575;52.600;7.318;2023-03-21T06:07:15;32;30;
47810;PMS5003;33575;52.600;7.318;2023-03-21T06:09:45;36;34;
47810;PMS5003;33575;52.600;7.318;2023-03-21T06:12:16;39;39;
47810;PMS5003;33575;52.600;7.318;2023-03-21T06:14:46;35;33;
47810;PMS5003;33575;52.600;7.318;2023-03-21T06:17:17;30;30;
47810;PMS5003;33575;52.600;7.318;2023-03-21T06:19:47;36;34;
47810;PMS5003;33575;52.600;7.318;2023-03-21T06:22:17;31;28;
47810;PMS5003;33575;52.600;7.318;2023-03-21T06:24:48;29;27;
47810;PMS5003;33575;52.600;7.318;2023-03-21T06:27:18;39;36;
47810;PMS5003;33575;52.600;7.318;2023-03-21T06:29:49;31;29;
47810;PMS5003;33575;52.600;7.318;2023-03-21T06:32:19;35;34;
47810;PMS5003;33575;52.600;7.318;2023-03-21T06:34:50;29;28;
47810;PMS5003;33575;52.600;7.318;2023-03-21T06:37:20;33;30;
47810;PMS5003;33575;52.600;7.318;2023-03-21T06:39:51;32;30;
47810;PMS5003;33575;52.600;7.318;2023-03-21T06:42:21;26;26;
47810;PMS5003;33575;52.600;7.318;2023-03-21T06:44:52;33;31;
47810;PMS5003;33575;52.600;7.318;2023-03-21T06:47:22;29;29;
47810;PMS5003;33575;52.600;7.318;2023-03-21T06:49:52;32;29;
47810;PMS5003;33575;52.600;7.318;2023-03-21T06:52:22;26;25;
47810;PMS5003;33575;52.600;7.318;2023-03-21T06:54:53;35;32;
47810;PMS5003;33575;52.600;7.318;2023-03-21T06:57:23;33;28;
47810;PMS5003;33575;52.600;7.318;2023-03-21T06:59:54;29;26;
47810;PMS5003;33575;52.600;7.318;2023-03-21T07:02:24;30;27;
47810;PMS5003;33575;52.600;7.318;2023-03-21T07:04:54;28;28;
47810;PMS5003;33575;52.600;7.318;2023-03-21T07:07:25;34;32;
47810;PMS5003;33575;52.600;7.318;2023-03-21T07:09:56;31;28;
47810;PMS5003;33575;52.600;7.318;2023-03-21T07:12:26;28;26;
47810;PMS5003;33575;52.600;7.318;2023-03-21T07:14:57;36;34;
47810;PMS5003;33575;52.600;7.318;2023-03-21T07:17:28;31;29;
47810;PMS5003;33575;52.600;7.318;2023-03-21T07:19:58;25;24;
47810;PMS5003;33575;52.600;7.318;2023-03-21T07:22:28;26;24;
47810;PMS5003;33575;52.600;7.318;2023-03-21T07:25:04;25;24;
47810;PMS5003;33575;52.600;7.318;2023-03-21T07:27:29;27;25;
47810;PMS5003;33575;52.600;7.318;2023-03-21T07:29:59;27;26;
47810;PMS5003;33575;52.600;7.318;2023-03-21T07:32:31;24;24;
47810;PMS5003;33575;52.600;7.318;2023-03-21T07:35:02;28;26;
47810;PMS5003;33575;52.600;7.318;2023-03-21T07:37:30;27;25;
47810;PMS5003;33575;52.600;7.318;2023-03-21T07:40:01;21;19;
47810;PMS5003;33575;52.600;7.318;2023-03-21T07:42:32;19;18;
47810;PMS5003;33575;52.600;7.318;2023-03-21T07:45:02;23;22;
47810;PMS5003;33575;52.600;7.318;2023-03-21T07:47:33;24;22;
47810;PMS5003;33575;52.600;7.318;2023-03-21T07:50:03;25;20;
47810;PMS5003;33575;52.600;7.318;2023-03-21T07:52:33;23;22;
47810;PMS5003;33575;52.600;7.318;2023-03-21T07:55:04;24;22;
47810;PMS5003;33575;52.600;7.318;2023-03-21T07:57:34;21;20;
47810;PMS5003;33575;52.600;7.318;2023-03-21T08:00:05;22;21;
47810;PMS5003;33575;52.600;7.318;2023-03-21T08:02:36;22;19;
47810;PMS5003;33575;52.600;7.318;2023-03-21T08:05:06;26;24;
47810;PMS5003;33575;52.600;7.318;2023-03-21T08:07:37;23;20;
47810;PMS5003;33575;52.600;7.318;2023-03-21T08:10:08;22;22;
47810;PMS5003;33575;52.600;7.318;2023-03-21T08:12:38;24;23;
47810;PMS5003;33575;52.600;7.318;2023-03-21T08:15:09;20;19;
47810;PMS5003;33575;52.600;7.318;2023-03-21T08:17:39;27;25;
47810;PMS5003;33575;52.600;7.318;2023-03-21T08:20:10;26;25;
47810;PMS5003;33575;52.600;7.318;2023-03-21T08:22:40;30;26;
47810;PMS5003;33575;52.600;7.318;2023-03-21T08:25:11;24;23;
47810;PMS5003;33575;52.600;7.318;2023-03-21T08:27:41;28;25;
47810;PMS5003;33575;52.600;7.318;2023-03-21T08:30:11;23;20;
47810;PMS5003;33575;52.600;7.318;2023-03-21T08:32:41;23;22;
47810;PMS5003;33575;52.600;7.318;2023-03-21T08:35:12;23;22;
47810;PMS5003;33575;52.600;7.318;2023-03-21T08:37:43;28;24;
47810;PMS5003;33575;52.600;7.318;2023-03-21T08:40:13;26;24;
47810;PMS5003;33575;52.600;7.318;2023-03-21T08:42:43;25;25;
47810;PMS5003;33575;52.600;7.318;2023-03-21T08:45:14;23;20;
47810;PMS5003;33575;52.600;7.318;2023-03-21T08:47:45;24;22;
47810;PMS5003;33575;52.600;7.318;2023-03-21T08:50:16;31;29;
47810;PMS5003;33575;52.600;7.318;2023-03-21T08:52:45;23;22;
47810;PMS5003;33575;52.600;7.318;2023-03-21T08:55:16;22;22;
47810;PMS5003;33575;52.600;7.318;2023-03-21T08:57:46;26;23;
47810;PMS5003;33575;52.600;7.318;2023-03-21T09:00:16;27;24;
47810;PMS5003;33575;52.600;7.318;2023-03-21T09:02:47;27;25;
47810;PMS5003;33575;52.600;7.318;2023-03-21T09:05:17;27;25;
47810;PMS5003;33575;52.600;7.318;2023-03-21T09:07:48;30;26;
47810;PMS5003;33575;52.600;7.318;2023-03-21T09:10:22;24;21;
47810;PMS5003;33575;52.600;7.318;2023-03-21T09:12:50;23;21;
47810;PMS5003;33575;52.600;7.318;2023-03-21T09:15:19;21;20;
47810;PMS5003;33575;52.600;7.318;2023-03-21T09:17:49;24;23;
47810;PMS5003;33575;52.600;7.318;2023-03-21T09:20:21;26;25;
47810;PMS5003;33575;52.600;7.318;2023-03-21T09:22:50;21;21;
47810;PMS5003;33575;52.600;7.318;2023-03-21T09:25:22;29;28;
47810;PMS5003;33575;52.600;7.318;2023-03-21T09:27:51;28;24;
47810;PMS5003;33575;52.600;7.318;2023-03-21T09:30:23;22;22;
47810;PMS5003;33575;52.600;7.318;2023-03-21T09:32:52;25;23;
47810;PMS5003;33575;52.600;7.318;2023-03-21T09:35:22;24;24;
47810;PMS5003;33575;52.600;7.318;2023-03-21T09:37:53;19;19;
47810;PMS5003;33575;52.600;7.318;2023-03-21T09:40:28;26;22;
47810;PMS5003;33575;52.600;7.318;2023-03-21T09:42:55;22;20;
47810;PMS5003;33575;52.600;7.318;2023-03-21T09:45:26;26;23;
47810;PMS5003;33575;52.600;7.318;2023-03-21T09:47:54;28;26;
47810;PMS5003;33575;52.600;7.318;2023-03-21T09:50:25;21;20;
47810;PMS5003;33575;52.600;7.318;2023-03-21T09:52:56;24;21;
47810;PMS5003;33575;52.600;7.318;2023-03-21T09:55:26;22;22;
47810;PMS5003;33575;52.600;7.318;2023-03-21T09:57:59;24;22;
47810;PMS5003;33575;52.600;7.318;2023-03-21T10:00:28;21;20;
47810;PMS5003;33575;52.600;7.318;2023-03-21T10:02:59;27;25;
47810;PMS5003;33575;52.600;7.318;2023-03-21T10:05:28;28;26;
47810;PMS5003;33575;52.600;7.318;2023-03-21T10:08:00;26;25;
47810;PMS5003;33575;52.600;7.318;2023-03-21T10:10:31;27;23;
47810;PMS5003;33575;52.600;7.318;2023-03-21T10:13:00;27;25;
47810;PMS5003;33575;52.600;7.318;2023-03-21T10:15:30;24;22;
47810;PMS5003;33575;52.600;7.318;2023-03-21T10:18:01;23;21;
47810;PMS5003;33575;52.600;7.318;2023-03-21T10:20:32;24;23;
47810;PMS5003;33575;52.600;7.318;2023-03-21T10:23:02;25;25;
47810;PMS5003;33575;52.600;7.318;2023-03-21T10:25:33;25;23;
47810;PMS5003;33575;52.600;7.318;2023-03-21T10:28:03;27;24;
47810;PMS5003;33575;52.600;7.318;2023-03-21T10:30:34;27;25;
47810;PMS5003;33575;52.600;7.318;2023-03-21T10:33:05;24;24;
47810;PMS5003;33575;52.600;7.318;2023-03-21T10:35:34;30;28;
47810;PMS5003;33575;52.600;7.318;2023-03-21T10:38:04;23;22;
47810;PMS5003;33575;52.600;7.318;2023-03-21T10:40:36;21;21;
47810;PMS5003;33575;52.600;7.318;2023-03-21T10:45:35;22;22;
47810;PMS5003;33575;52.600;7.318;2023-03-21T10:48:07;34;31;
47810;PMS5003;33575;52.600;7.318;2023-03-21T10:50:36;25;24;
47810;PMS5003;33575;52.600;7.318;2023-03-21T10:53:11;26;26;
47810;PMS5003;33575;52.600;7.318;2023-03-21T10:55:38;28;25;
47810;PMS5003;33575;52.600;7.318;2023-03-21T10:58:08;20;19;
47810;PMS5003;33575;52.600;7.318;2023-03-21T11:00:38;22;21;
47810;PMS5003;33575;52.600;7.318;2023-03-21T11:05:39;23;20;
47810;PMS5003;33575;52.600;7.318;2023-03-21T11:08:09;23;21;
47810;PMS5003;33575;52.600;7.318;2023-03-21T11:13:17;23;23;
47810;PMS5003;33575;52.600;7.318;2023-03-21T11:15:41;17;16;
47810;PMS5003;33575;52.600;7.318;2023-03-21T11:18:13;22;19;
47810;PMS5003;33575;52.600;7.318;2023-03-21T11:20:41;15;14;
47810;PMS5003;33575;52.600;7.318;2023-03-21T11:23:11;19;17;
47810;PMS5003;33575;52.600;7.318;2023-03-21T11:25:42;18;15;
47810;PMS5003;33575;52.600;7.318;2023-03-21T11:28:13;14;14;
47810;PMS5003;33575;52.600;7.318;2023-03-21T11:33:13;14;14;
47810;PMS5003;33575;52.600;7.318;2023-03-21T11:35:43;25;21;
47810;PMS5003;33575;52.600;7.318;2023-03-21T11:48:15;17;14;
47810;PMS5003;33575;52.600;7.318;2023-03-21T11:50:46;16;15;
47810;PMS5003;33575;52.600;7.318;2023-03-21T11:53:22;15;14;
47810;PMS5003;33575;52.600;7.318;2023-03-21T11:55:51;18;14;
47810;PMS5003;33575;52.600;7.318;2023-03-21T11:58:22;13;12;
47810;PMS5003;33575;52.600;7.318;2023-03-21T12:00:49;12;11;
47810;PMS5003;33575;52.600;7.318;2023-03-21T12:05:51;15;15;
47810;PMS5003;33575;52.600;7.318;2023-03-21T12:08:22;14;12;
47810;PMS5003;33575;52.600;7.318;2023-03-21T12:10:50;16;15;
47810;PMS5003;33575;52.600;7.318;2023-03-21T12:13:24;17;14;
47810;PMS5003;33575;52.600;7.318;2023-03-21T12:15:53;19;17;
47810;PMS5003;33575;52.600;7.318;2023-03-21T12:18:27;17;16;
47810;PMS5003;33575;52.600;7.318;2023-03-21T12:20:51;19;16;
47810;PMS5003;33575;52.600;7.318;2023-03-21T12:23:26;18;17;
47810;PMS5003;33575;52.600;7.318;2023-03-21T12:25:53;18;17;
47810;PMS5003;33575;52.600;7.318;2023-03-21T12:28:30;20;18;
47810;PMS5003;33575;52.600;7.318;2023-03-21T12:30:54;19;19;
47810;PMS5003;33575;52.600;7.318;2023-03-21T12:33:26;21;20;
47810;PMS5003;33575;52.600;7.318;2023-03-21T12:35:58;19;18;
47810;PMS5003;33575;52.600;7.318;2023-03-21T12:38:27;22;19;
47810;PMS5003;33575;52.600;7.318;2023-03-21T12:41:00;19;18;
47810;PMS5003;33575;52.600;7.318;2023-03-21T12:43:28;26;24;
47810;PMS5003;33575;52.600;7.318;2023-03-21T12:45:57;19;18;
47810;PMS5003;33575;52.600;7.318;2023-03-21T12:48:29;22;20;
47810;PMS5003;33575;52.600;7.318;2023-03-21T12:50:57;23;22;
47810;PMS5003;33575;52.600;7.318;2023-03-21T12:53:34;24;22;
47810;PMS5003;33575;52.600;7.318;2023-03-21T12:55:58;22;21;
47810;PMS5003;33575;52.600;7.318;2023-03-21T12:58:28;23;22;
47810;PMS5003;33575;52.600;7.318;2023-03-21T13:00:59;28;27;
47810;PMS5003;33575;52.600;7.318;2023-03-21T13:03:35;25;24;
47810;PMS5003;33575;52.600;7.318;2023-03-21T13:06:01;28;26;
47810;PMS5003;33575;52.600;7.318;2023-03-21T13:08:32;25;25;
47810;PMS5003;33575;52.600;7.318;2023-03-21T13:11:02;30;28;
47810;PMS5003;33575;52.600;7.318;2023-03-21T13:13:32;28;27;
47810;PMS5003;33575;52.600;7.318;2023-03-21T13:16:04;27;27;
47810;PMS5003;33575;52.600;7.318;2023-03-21T13:18:36;29;27;
47810;PMS5003;33575;52.600;7.318;2023-03-21T13:21:03;34;32;
47810;PMS5003;33575;52.600;7.318;2023-03-21T13:23:34;35;35;
47810;PMS5003;33575;52.600;7.318;2023-03-21T13:26:06;34;32;
47810;PMS5003;33575;52.600;7.318;2023-03-21T13:28:34;37;36;
47810;PMS5003;33575;52.600;7.318;2023-03-21T13:33:35;37;32;
47810;PMS5003;33575;52.600;7.318;2023-03-21T13:36:06;42;39;
47810;PMS5003;33575;52.600;7.318;2023-03-21T13:38:36;37;36;
47810;PMS5003;33575;52.600;7.318;2023-03-21T13:41:07;42;41;
47810;PMS5003;33575;52.600;7.318;2023-03-21T13:43:39;38;36;
47810;PMS5003;33575;52.600;7.318;2023-03-21T13:46:07;38;36;
47810;PMS5003;33575;52.600;7.318;2023-03-21T13:48:41;40;35;
47810;PMS5003;33575;52.600;7.318;2023-03-21T13:51:07;37;35;
47810;PMS5003;33575;52.600;7.318;2023-03-21T13:53:38;40;36;
47810;PMS5003;33575;52.600;7.318;2023-03-21T13:58:49;33;32;
47810;PMS5003;33575;52.600;7.318;2023-03-21T14:01:20;43;41;
47810;PMS5003;33575;52.600;7.318;2023-03-21T14:03:40;43;43;
47810;PMS5003;33575;52.600;7.318;2023-03-21T14:06:10;31;31;
47810;PMS5003;33575;52.600;7.318;2023-03-21T14:08:41;35;35;
47810;PMS5003;33575;52.600;7.318;2023-03-21T14:11:12;39;34;
47810;PMS5003;33575;52.600;7.318;2023-03-21T14:13:46;36;34;
47810;PMS5003;33575;52.600;7.318;2023-03-21T14:16:13;43;40;
47810;PMS5003;33575;52.600;7.318;2023-03-21T14:18:49;32;32;
47810;PMS5003;33575;52.600;7.318;2023-03-21T14:21:19;37;37;
47810;PMS5003;33575;52.600;7.318;2023-03-21T14:23:43;31;31;
47810;PMS5003;33575;52.600;7.318;2023-03-21T14:26:14;31;30;
47810;PMS5003;33575;52.600;7.318;2023-03-21T14:28:45;31;29;
47810;PMS5003;33575;52.600;7.318;2023-03-21T14:31:15;43;42;
47810;PMS5003;33575;52.600;7.318;2023-03-21T14:33:46;25;25;
47810;PMS5003;33575;52.600;7.318;2023-03-21T14:36:17;33;30;
47810;PMS5003;33575;52.600;7.318;2023-03-21T14:41:18;30;30;
47810;PMS5003;33575;52.600;7.318;2023-03-21T14:46:19;43;42;
47810;PMS5003;33575;52.600;7.318;2023-03-21T14:48:49;43;42;
47810;PMS5003;33575;52.600;7.318;2023-03-21T14:51:19;38;37;
47810;PMS5003;33575;52.600;7.318;2023-03-21T14:53:50;47;47;
47810;PMS5003;33575;52.600;7.318;2023-03-21T14:56:21;24;23;
47810;PMS5003;33575;52.600;7.318;2023-03-21T14:58:51;40;40;
47810;PMS5003;33575;52.600;7.318;2023-03-21T15:01:24;23;22;
47810;PMS5003;33575;52.600;7.318;2023-03-21T15:03:51;25;24;
47810;PMS5003;33575;52.600;7.318;2023-03-21T15:06:22;30;29;
47810;PMS5003;33575;52.600;7.318;2023-03-21T15:08:53;23;23;
47810;PMS5003;33575;52.600;7.318;2023-03-21T15:13:53;43;40;
47810;PMS5003;33575;52.600;7.318;2023-03-21T15:16:23;26;24;
47810;PMS5003;33575;52.600;7.318;2023-03-21T15:18:53;34;34;
47810;PMS5003;33575;52.600;7.318;2023-03-21T15:21:24;18;17;
47810;PMS5003;33575;52.600;7.318;2023-03-21T15:23:54;20;20;
47810;PMS5003;33575;52.600;7.318;2023-03-21T15:26:24;23;20;
47810;PMS5003;33575;52.600;7.318;2023-03-21T15:28:56;22;21;
47810;PMS5003;33575;52.600;7.318;2023-03-21T15:31:27;34;34;
47810;PMS5003;33575;52.600;7.318;2023-03-21T15:33:56;19;19;
47810;PMS5003;33575;52.600;7.318;2023-03-21T15:36:28;25;24;
47810;PMS5003;33575;52.600;7.318;2023-03-21T15:38:59;31;29;
47810;PMS5003;33575;52.600;7.318;2023-03-21T15:41:29;66;65;
47810;PMS5003;33575;52.600;7.318;2023-03-21T15:44:01;54;53;
47810;PMS5003;33575;52.600;7.318;2023-03-21T15:46:31;26;24;
47810;PMS5003;33575;52.600;7.318;2023-03-21T15:51:29;47;46;
47810;PMS5003;33575;52.600;7.318;2023-03-21T15:54:00;22;20;
47810;PMS5003;33575;52.600;7.318;2023-03-21T15:56:31;22;21;
47810;PMS5003;33575;52.600;7.318;2023-03-21T15:59:01;26;25;
47810;PMS5003;33575;52.600;7.318;2023-03-21T16:01:31;38;37;
47810;PMS5003;33575;52.600;7.318;2023-03-21T16:04:04;57;53;
47810;PMS5003;33575;52.600;7.318;2023-03-21T16:06:32;24;22;
47810;PMS5003;33575;52.600;7.318;2023-03-21T16:09:04;19;18;
47810;PMS5003;33575;52.600;7.318;2023-03-21T16:11:37;23;21;
47810;PMS5003;33575;52.600;7.318;2023-03-21T16:14:03;17;16;
47810;PMS5003;33575;52.600;7.318;2023-03-21T16:16:33;18;18;
47810;PMS5003;33575;52.600;7.318;2023-03-21T16:19:04;17;17;
47810;PMS5003;33575;52.600;7.318;2023-03-21T16:21:34;23;21;
47810;PMS5003;33575;52.600;7.318;2023-03-21T16:24:04;20;20;
47810;PMS5003;33575;52.600;7.318;2023-03-21T16:26:35;17;16;
47810;PMS5003;33575;52.600;7.318;2023-03-21T16:29:05;16;15;
47810;PMS5003;33575;52.600;7.318;2023-03-21T16:31:35;18;18;
47810;PMS5003;33575;52.600;7.318;2023-03-21T16:34:05;21;20;
47810;PMS5003;33575;52.600;7.318;2023-03-21T16:36:36;20;20;
47810;PMS5003;33575;52.600;7.318;2023-03-21T16:39:10;19;19;
47810;PMS5003;33575;52.600;7.318;2023-03-21T16:41:36;21;19;
47810;PMS5003;33575;52.600;7.318;2023-03-21T16:44:06;18;17;
47810;PMS5003;33575;52.600;7.318;2023-03-21T16:46:37;19;18;
47810;PMS5003;33575;52.600;7.318;2023-03-21T16:51:37;20;20;
47810;PMS5003;33575;52.600;7.318;2023-03-21T16:54:08;19;18;
47810;PMS5003;33575;52.600;7.318;2023-03-21T16:56:39;19;19;
47810;PMS5003;33575;52.600;7.318;2023-03-21T16:59:09;19;19;
47810;PMS5003;33575;52.600;7.318;2023-03-21T17:01:39;21;21;
47810;PMS5003;33575;52.600;7.318;2023-03-21T17:04:09;20;18;
47810;PMS5003;33575;52.600;7.318;2023-03-21T17:06:41;19;19;
47810;PMS5003;33575;52.600;7.318;2023-03-21T17:09:10;21;18;
47810;PMS5003;33575;52.600;7.318;2023-03-21T17:11:40;20;18;
47810;PMS5003;33575;52.600;7.318;2023-03-21T17:14:11;21;20;
47810;PMS5003;33575;52.600;7.318;2023-03-21T17:16:41;23;21;
47810;PMS5003;33575;52.600;7.318;2023-03-21T17:19:12;18;18;
47810;PMS5003;33575;52.600;7.318;2023-03-21T17:21:41;18;16;
47810;PMS5003;33575;52.600;7.318;2023-03-21T17:24:12;18;17;
47810;PMS5003;33575;52.600;7.318;2023-03-21T17:26:43;23;22;